createdAt,value
2023-04-09T00:02:00.997Z,9.80
2023-04-09T00:04:30.446Z,8.90
2023-04-09T00:06:59.878Z,9.40
2023-04-09T00:09:29.266Z,9.20
2023-04-09T00:11:58.586Z,9.60
2023-04-09T00:14:28.211Z,8.80
2023-04-09T00:16:57.577Z,9.80
2023-04-09T00:19:26.892Z,8.60
2023-04-09T00:21:56.918Z,8.70
2023-04-09T00:24:26.428Z,8.90
2023-04-09T00:26:55.795Z,8.60
2023-04-09T00:29:25.309Z,9.40
2023-04-09T00:31:54.808Z,9.70
2023-04-09T00:34:24.718Z,9.20
2023-04-09T00:36:54.092Z,11.30
2023-04-09T00:39:23.410Z,10.60
2023-04-09T00:42:02.720Z,11.10
2023-04-09T00:44:32.682Z,11.00
2023-04-09T00:47:02.075Z,10.50
2023-04-09T00:49:31.586Z,11.70
2023-04-09T00:52:01.080Z,11.70
2023-04-09T00:54:30.739Z,11.10
2023-04-09T00:57:00.943Z,11.40
2023-04-09T00:59:30.622Z,11.60
2023-04-09T01:02:00.048Z,11.70
2023-04-09T01:04:29.731Z,11.20
2023-04-09T01:07:13.376Z,11.70
2023-04-09T01:10:20.186Z,13.60
2023-04-09T01:13:16.798Z,12.60
2023-04-09T01:15:56.165Z,13.40
2023-04-09T01:18:44.537Z,12.90
2023-04-09T01:21:17.991Z,14.70
2023-04-09T01:24:20.451Z,14.00
2023-04-09T01:27:09.905Z,13.80
2023-04-09T01:29:56.271Z,13.80
2023-04-09T01:32:27.125Z,14.50
2023-04-09T01:34:57.386Z,14.30
2023-04-09T01:37:27.512Z,13.60
2023-04-09T01:39:57.223Z,14.80
2023-04-09T01:42:28.575Z,14.60
2023-04-09T01:44:58.933Z,14.70
2023-04-09T01:47:28.933Z,14.80
2023-04-09T01:49:58.816Z,15.60
2023-04-09T01:52:28.672Z,15.10
2023-04-09T01:54:58.102Z,15.30
2023-04-09T01:57:27.632Z,14.50
2023-04-09T01:59:57.134Z,15.80
2023-04-09T02:03:08.598Z,15.10
2023-04-09T02:05:44.852Z,13.90
2023-04-09T02:08:21.097Z,17.30
2023-04-09T02:10:56.985Z,15.50
2023-04-09T02:13:28.539Z,17.40
2023-04-09T02:16:00.453Z,15.10
2023-04-09T02:18:31.392Z,15.20
2023-04-09T02:21:00.881Z,15.10
2023-04-09T02:23:32.603Z,16.70
2023-04-09T02:26:02.699Z,16.40
2023-04-09T02:28:32.073Z,17.00
2023-04-09T02:31:01.445Z,16.50
2023-04-09T02:33:32.326Z,16.10
2023-04-09T02:36:01.847Z,16.50
2023-04-09T02:38:31.882Z,15.10
2023-04-09T02:41:01.197Z,16.30
2023-04-09T02:43:30.794Z,17.30
2023-04-09T02:46:00.313Z,14.30
2023-04-09T02:48:29.828Z,16.40
2023-04-09T02:50:59.376Z,15.20
2023-04-09T02:53:28.789Z,15.50
2023-04-09T02:55:58.212Z,16.50
2023-04-09T02:58:27.666Z,15.60
2023-04-09T03:00:56.994Z,15.70
2023-04-09T03:03:26.484Z,15.30
2023-04-09T03:05:55.820Z,16.40
2023-04-09T03:08:25.370Z,16.70
2023-04-09T03:10:54.811Z,17.20
2023-04-09T03:13:24.157Z,16.70
2023-04-09T03:15:53.983Z,17.80
2023-04-09T03:18:23.598Z,16.20
2023-04-09T03:20:53.007Z,15.60
2023-04-09T03:23:22.846Z,15.50
2023-04-09T03:26:02.699Z,16.20
2023-04-09T03:28:34.483Z,15.40
2023-04-09T03:31:03.858Z,15.70
2023-04-09T03:33:35.007Z,17.60
2023-04-09T03:36:05.504Z,15.60
2023-04-09T03:38:48.078Z,15.70
2023-04-09T03:41:28.190Z,16.10
2023-04-09T03:43:57.896Z,15.90
2023-04-09T03:46:30.081Z,16.10
2023-04-09T03:48:59.905Z,15.30
2023-04-09T03:51:36.809Z,14.50
2023-04-09T03:54:06.713Z,16.00
2023-04-09T03:56:36.156Z,18.30
2023-04-09T03:59:08.346Z,18.80
2023-04-09T04:01:41.219Z,19.20
2023-04-09T04:04:12.068Z,16.00
2023-04-09T04:09:33.429Z,15.80
2023-04-09T04:12:08.351Z,17.90
2023-04-09T04:15:02.536Z,18.50
2023-04-09T04:17:42.597Z,18.20
2023-04-09T04:20:18.811Z,16.10
2023-04-09T04:23:12.868Z,15.00
2023-04-09T04:25:49.688Z,15.50
2023-04-09T04:28:23.317Z,16.00
2023-04-09T04:30:52.746Z,14.80
2023-04-09T04:33:22.323Z,14.90
2023-04-09T04:35:54.641Z,14.70
2023-04-09T04:38:41.288Z,13.90
2023-04-09T04:41:16.089Z,11.70
2023-04-09T04:43:50.490Z,14.10
2023-04-09T04:46:23.620Z,14.80
2023-04-09T04:48:55.815Z,14.90
2023-04-09T04:51:27.938Z,16.10
2023-04-09T04:54:07.416Z,12.50
2023-04-09T04:56:39.155Z,14.70
2023-04-09T04:59:34.267Z,14.90
2023-04-09T05:02:09.291Z,12.70
2023-04-09T05:05:32.065Z,13.90
2023-04-09T05:08:03.058Z,12.50
2023-04-09T05:10:32.624Z,15.00
2023-04-09T05:13:02.572Z,13.00
2023-04-09T05:15:41.952Z,12.50
2023-04-09T05:18:11.459Z,12.10
2023-04-09T05:20:42.459Z,13.40
2023-04-09T05:23:12.737Z,12.30
2023-04-09T05:25:44.126Z,12.20
2023-04-09T05:28:19.456Z,13.40
2023-04-09T05:30:49.995Z,12.60
2023-04-09T05:33:20.212Z,12.00
2023-04-09T05:35:49.805Z,12.40
2023-04-09T05:38:19.275Z,10.90
2023-04-09T05:40:50.558Z,12.10
2023-04-09T05:43:19.904Z,11.80
2023-04-09T05:45:50.032Z,10.30
2023-04-09T05:48:19.883Z,10.60
2023-04-09T05:50:55.561Z,10.70
2023-04-09T05:53:27.864Z,10.60
2023-04-09T05:55:57.343Z,11.50
2023-04-09T05:58:29.784Z,10.20
2023-04-09T06:00:59.943Z,11.10
2023-04-09T06:03:29.611Z,12.50
2023-04-09T06:05:59.197Z,9.60
2023-04-09T06:08:28.614Z,9.30
2023-04-09T06:10:59.135Z,31.40
2023-04-09T06:13:28.512Z,9.50
2023-04-09T06:15:58.009Z,11.00
2023-04-09T06:18:27.483Z,9.30
2023-04-09T06:21:07.857Z,9.70
2023-04-09T06:26:06.602Z,9.50
2023-04-09T06:28:36.790Z,9.90
2023-04-09T06:31:06.227Z,10.20
2023-04-09T06:33:35.557Z,9.10
2023-04-09T06:36:05.291Z,9.30
2023-04-09T06:38:34.637Z,9.20
2023-04-09T06:41:07.003Z,8.40
2023-04-09T06:43:37.675Z,9.30
2023-04-09T06:46:07.297Z,8.90
2023-04-09T06:48:36.654Z,8.50
2023-04-09T06:51:07.833Z,7.60
2023-04-09T06:53:39.129Z,8.20
2023-04-09T06:56:08.710Z,9.70
2023-04-09T06:58:38.147Z,9.20
2023-04-09T07:01:07.643Z,8.60
2023-04-09T07:03:37.211Z,8.40
2023-04-09T07:06:06.843Z,8.50
2023-04-09T07:08:36.324Z,8.80
2023-04-09T07:11:05.896Z,10.70
2023-04-09T07:13:35.349Z,10.10
2023-04-09T07:16:05.195Z,10.40
2023-04-09T07:18:34.558Z,9.00
2023-04-09T07:21:04.425Z,9.00
2023-04-09T07:23:37.415Z,11.50
2023-04-09T07:26:07.416Z,10.10
2023-04-09T07:28:36.855Z,9.40
2023-04-09T07:31:06.269Z,10.70
2023-04-09T07:33:35.977Z,10.20
2023-04-09T07:36:07.054Z,10.60
2023-04-09T07:38:36.586Z,10.60
2023-04-09T07:41:07.289Z,10.50
2023-04-09T07:43:40.001Z,9.70
2023-04-09T07:46:09.583Z,11.90
2023-04-09T07:48:38.912Z,10.80
2023-04-09T07:51:08.672Z,10.50
2023-04-09T07:53:38.178Z,12.10
2023-04-09T07:56:08.271Z,10.60
2023-04-09T07:58:40.302Z,10.20
2023-04-09T08:01:09.672Z,10.40
2023-04-09T08:03:39.249Z,11.10
2023-04-09T08:06:09.835Z,11.40
2023-04-09T08:08:39.285Z,11.60
2023-04-09T08:11:08.754Z,9.90
2023-04-09T08:13:38.188Z,10.80
2023-04-09T08:16:07.647Z,10.70
2023-04-09T08:18:37.034Z,12.00
2023-04-09T08:21:08.172Z,10.70
2023-04-09T08:23:37.922Z,10.90
2023-04-09T08:26:07.441Z,10.60
2023-04-09T08:28:37.529Z,10.30
2023-04-09T08:31:06.967Z,8.90
2023-04-09T08:33:36.291Z,8.10
2023-04-09T08:36:09.762Z,8.90
2023-04-09T08:41:17.359Z,6.90
2023-04-09T08:43:57.839Z,7.60
2023-04-09T08:46:31.381Z,10.30
2023-04-09T08:49:00.812Z,9.70
2023-04-09T08:51:30.215Z,8.00
2023-04-09T08:54:04.473Z,8.80
2023-04-09T08:56:34.602Z,7.10
2023-04-09T08:59:03.997Z,10.00
2023-04-09T09:01:33.577Z,7.40
2023-04-09T09:04:08.637Z,8.90
2023-04-09T09:06:41.244Z,10.20
2023-04-09T09:09:16.657Z,9.80
2023-04-09T09:11:50.463Z,8.40
2023-04-09T09:14:23.241Z,9.60
2023-04-09T09:16:56.434Z,9.70
2023-04-09T09:19:26.344Z,10.00
2023-04-09T09:22:04.990Z,9.80
2023-04-09T09:24:35.148Z,10.50
2023-04-09T09:27:05.082Z,10.40
2023-04-09T09:29:42.179Z,9.20
2023-04-09T09:32:14.446Z,9.80
2023-04-09T09:35:05.478Z,11.20
2023-04-09T09:37:35.005Z,10.60
2023-04-09T09:40:05.003Z,9.70
2023-04-09T09:42:34.497Z,10.10
2023-04-09T09:45:18.091Z,10.90
2023-04-09T09:47:48.675Z,12.40
2023-04-09T09:50:19.379Z,12.50
2023-04-09T09:52:48.972Z,9.80
2023-04-09T09:55:19.601Z,10.40
2023-04-09T09:57:51.872Z,11.60
2023-04-09T10:00:25.720Z,9.30
2023-04-09T10:03:21.793Z,9.40
2023-04-09T10:05:53.765Z,10.30
2023-04-09T10:08:24.045Z,9.20
2023-04-09T10:10:53.524Z,9.30
2023-04-09T10:13:36.267Z,8.80
2023-04-09T10:16:22.290Z,9.80
2023-04-09T10:18:52.325Z,11.30
2023-04-09T10:21:45.937Z,9.00
2023-04-09T10:24:17.173Z,8.90
2023-04-09T10:26:47.173Z,8.90
2023-04-09T10:29:16.995Z,9.60
2023-04-09T10:32:03.996Z,8.20
2023-04-09T10:34:43.607Z,8.90
2023-04-09T10:37:22.332Z,9.80
2023-04-09T10:39:53.645Z,9.10
2023-04-09T10:42:30.700Z,10.70
2023-04-09T10:45:22.467Z,9.50
2023-04-09T10:47:52.223Z,7.60
2023-04-09T10:50:28.014Z,10.40
2023-04-09T10:53:00.906Z,9.30
2023-04-09T10:55:41.890Z,9.90
2023-04-09T10:58:13.794Z,11.40
2023-04-09T11:00:46.594Z,10.20
2023-04-09T11:03:27.889Z,9.60
2023-04-09T11:06:09.472Z,10.20
2023-04-09T11:08:39.363Z,10.40
2023-04-09T11:11:10.465Z,10.30
2023-04-09T11:13:42.076Z,9.80
2023-04-09T11:16:22.893Z,10.20
2023-04-09T11:18:56.327Z,10.20
2023-04-09T11:21:29.022Z,9.90
2023-04-09T11:23:58.428Z,8.40
2023-04-09T11:26:36.623Z,9.20
2023-04-09T11:29:09.776Z,9.80
2023-04-09T11:31:39.210Z,9.70
2023-04-09T11:34:14.608Z,8.30
2023-04-09T11:36:43.936Z,9.50
2023-04-09T11:39:13.346Z,8.70
2023-04-09T11:41:44.040Z,10.00
2023-04-09T11:44:14.226Z,8.80
2023-04-09T11:46:44.864Z,8.00
2023-04-09T11:49:14.596Z,8.00
2023-04-09T11:51:44.330Z,8.30
2023-04-09T11:54:14.530Z,10.90
2023-04-09T11:56:43.850Z,8.10
2023-04-09T11:59:15.782Z,8.30
2023-04-09T12:01:51.429Z,9.00
2023-04-09T12:04:22.111Z,9.60
2023-04-09T12:06:52.177Z,7.50
2023-04-09T12:09:22.008Z,8.40
2023-04-09T12:11:52.378Z,8.00
2023-04-09T12:14:22.345Z,8.90
2023-04-09T12:16:54.828Z,8.90
2023-04-09T12:19:25.908Z,9.40
2023-04-09T12:21:58.624Z,7.70
2023-04-09T12:24:29.042Z,7.20
2023-04-09T12:27:00.472Z,8.20
2023-04-09T12:29:30.806Z,7.80
2023-04-09T12:32:00.280Z,7.50
2023-04-09T12:34:29.628Z,8.80
2023-04-09T12:36:59.904Z,7.20
2023-04-09T12:39:29.412Z,7.10
2023-04-09T12:41:58.639Z,7.10
2023-04-09T12:44:27.960Z,7.20
2023-04-09T12:46:57.295Z,7.70
2023-04-09T12:49:26.582Z,6.40
2023-04-09T12:51:56.095Z,6.60
2023-04-09T12:54:26.400Z,8.20
2023-04-09T12:56:56.139Z,6.90
2023-04-09T12:59:25.466Z,9.20
2023-04-09T13:01:54.945Z,8.40
2023-04-09T13:04:25.435Z,7.20
2023-04-09T13:06:55.124Z,6.80
2023-04-09T13:09:25.571Z,8.00
2023-04-09T13:11:55.202Z,9.10
2023-04-09T13:14:24.521Z,8.30
2023-04-09T13:16:54.190Z,8.30
2023-04-09T13:19:24.376Z,8.40
2023-04-09T13:21:53.969Z,8.30
2023-04-09T13:24:23.364Z,8.50
2023-04-09T13:26:52.832Z,7.50
2023-04-09T13:29:23.230Z,8.70
2023-04-09T13:31:52.492Z,9.30
2023-04-09T13:34:21.963Z,9.60
2023-04-09T13:36:51.655Z,8.60
2023-04-09T13:39:21.305Z,8.00
2023-04-09T13:41:52.158Z,8.70
2023-04-09T13:44:21.726Z,8.90
2023-04-09T13:46:51.085Z,9.90
2023-04-09T13:49:22.237Z,7.20
2023-04-09T13:51:51.742Z,5.40
2023-04-09T13:54:21.148Z,7.10
2023-04-09T13:56:51.265Z,12.00
2023-04-09T13:59:20.661Z,12.20
2023-04-09T14:01:50.106Z,14.50
2023-04-09T14:04:19.744Z,15.10
2023-04-09T14:06:49.280Z,11.50
2023-04-09T14:09:18.680Z,10.20
2023-04-09T14:11:48.045Z,8.40
2023-04-09T14:14:20.105Z,11.20
2023-04-09T14:16:50.581Z,10.60
2023-04-09T14:19:21.160Z,8.80
2023-04-09T14:21:53.390Z,9.40
2023-04-09T14:24:23.674Z,10.70
2023-04-09T14:26:53.690Z,7.20
2023-04-09T14:29:23.186Z,9.60
2023-04-09T14:31:53.898Z,10.80
2023-04-09T14:34:24.277Z,10.20
2023-04-09T14:36:53.741Z,12.20
2023-04-09T14:39:23.072Z,10.00
2023-04-09T14:41:52.679Z,8.00
2023-04-09T14:44:22.118Z,14.00
2023-04-09T14:46:55.141Z,10.40
2023-04-09T14:49:26.664Z,10.00
2023-04-09T14:51:56.729Z,10.70
2023-04-09T14:54:26.154Z,10.30
2023-04-09T14:56:55.604Z,10.00
2023-04-09T14:59:26.021Z,8.10
2023-04-09T15:01:55.489Z,8.70
2023-04-09T15:04:25.077Z,8.60
2023-04-09T15:06:54.531Z,9.10
2023-04-09T15:09:23.982Z,18.50
2023-04-09T15:11:54.372Z,25.70
2023-04-09T15:14:24.253Z,12.10
2023-04-09T15:16:56.067Z,8.50
2023-04-09T15:19:26.637Z,10.40
2023-04-09T15:21:56.830Z,10.00
2023-04-09T15:24:26.353Z,11.10
2023-04-09T15:26:57.242Z,11.30
2023-04-09T15:29:26.640Z,9.60
2023-04-09T15:31:56.564Z,9.40
2023-04-09T15:34:28.157Z,10.30
2023-04-09T15:36:57.465Z,10.00
2023-04-09T15:39:30.183Z,14.10
2023-04-09T15:41:59.796Z,10.60
2023-04-09T15:44:29.420Z,9.10
2023-04-09T15:46:59.728Z,8.70
2023-04-09T15:49:29.162Z,14.30
2023-04-09T15:51:58.597Z,14.50
2023-04-09T15:54:28.353Z,14.00
2023-04-09T15:56:57.704Z,17.00
2023-04-09T15:59:27.018Z,17.90
2023-04-09T16:01:56.471Z,15.10
2023-04-09T16:04:27.928Z,12.70
2023-04-09T16:06:57.599Z,13.40
2023-04-09T16:09:27.186Z,19.90
2023-04-09T16:11:56.645Z,17.10
2023-04-09T16:14:30.866Z,14.80
2023-04-09T16:17:00.678Z,16.00
2023-04-09T16:19:30.035Z,18.60
2023-04-09T16:22:01.014Z,17.20
2023-04-09T16:24:31.796Z,13.00
2023-04-09T16:27:01.689Z,13.30
2023-04-09T16:29:31.379Z,16.10
2023-04-09T16:32:06.183Z,15.60
2023-04-09T16:34:35.999Z,10.50
2023-04-09T16:37:05.589Z,11.40
2023-04-09T16:39:35.071Z,10.90
2023-04-09T16:42:04.578Z,9.60
2023-04-09T16:44:33.957Z,18.40
2023-04-09T16:47:03.586Z,13.90
2023-04-09T16:49:32.929Z,11.70
2023-04-09T16:52:02.349Z,8.60
2023-04-09T16:54:32.805Z,8.90
2023-04-09T16:57:03.450Z,8.70
2023-04-09T16:59:32.875Z,9.50
2023-04-09T17:02:02.816Z,11.10
2023-04-09T17:04:34.760Z,11.50
2023-04-09T17:07:04.711Z,12.40
2023-04-09T17:09:34.126Z,12.40
2023-04-09T17:12:03.934Z,13.60
2023-04-09T17:14:34.678Z,12.10
2023-04-09T17:17:05.301Z,16.00
2023-04-09T17:19:35.587Z,20.30
2023-04-09T17:22:06.113Z,21.90
2023-04-09T17:24:37.001Z,22.30
2023-04-09T17:27:06.825Z,27.00
2023-04-09T17:29:36.263Z,27.90
2023-04-09T17:32:06.258Z,29.60
2023-04-09T17:34:35.735Z,31.80
2023-04-09T17:37:07.614Z,33.70
2023-04-09T17:39:38.437Z,31.70
2023-04-09T17:42:08.573Z,35.80
2023-04-09T17:44:39.833Z,37.40
2023-04-09T17:47:12.528Z,40.10
2023-04-09T17:49:42.741Z,41.70
2023-04-09T17:52:13.301Z,41.30
2023-04-09T17:54:45.591Z,39.90
2023-04-09T17:57:15.705Z,36.90
2023-04-09T17:59:46.368Z,34.80
2023-04-09T18:02:15.764Z,39.30
2023-04-09T18:04:45.337Z,39.20
2023-04-09T18:07:14.980Z,39.70
2023-04-09T18:09:45.328Z,39.40
2023-04-09T18:12:17.300Z,42.10
2023-04-09T18:14:49.350Z,42.80
2023-04-09T18:17:19.272Z,45.00
2023-04-09T18:19:49.346Z,40.20
2023-04-09T18:22:18.737Z,40.40
2023-04-09T18:24:50.735Z,39.50
2023-04-09T18:27:21.641Z,40.20
2023-04-09T18:29:51.142Z,41.40
2023-04-09T18:32:20.923Z,39.90
2023-04-09T18:34:52.337Z,37.40
2023-04-09T18:37:22.020Z,34.00
2023-04-09T18:39:52.483Z,35.70
2023-04-09T18:42:21.815Z,36.00
2023-04-09T18:44:53.684Z,36.20
2023-04-09T18:47:26.288Z,42.90
2023-04-09T18:49:55.785Z,46.50
2023-04-09T18:52:25.144Z,37.10
2023-04-09T18:54:54.750Z,24.30
2023-04-09T18:57:24.206Z,19.60
2023-04-09T18:59:53.964Z,21.80
2023-04-09T19:02:23.409Z,20.30
2023-04-09T19:04:53.628Z,19.90
2023-04-09T19:07:23.163Z,16.00
2023-04-09T19:09:55.386Z,14.90
2023-04-09T19:12:27.647Z,16.00
2023-04-09T19:14:56.963Z,17.40
2023-04-09T19:17:27.480Z,21.40
2023-04-09T19:19:57.088Z,22.20
2023-04-09T19:22:26.796Z,19.30
2023-04-09T19:24:56.172Z,17.20
2023-04-09T19:27:25.503Z,13.40
2023-04-09T19:29:54.938Z,15.50
2023-04-09T19:32:24.386Z,14.30
2023-04-09T19:34:53.710Z,17.20
2023-04-09T19:37:27.621Z,17.80
2023-04-09T19:39:59.190Z,15.30
2023-04-09T19:42:29.041Z,14.90
2023-04-09T19:44:58.884Z,13.40
2023-04-09T19:47:28.500Z,12.50
2023-04-09T19:49:57.807Z,16.00
2023-04-09T19:52:27.212Z,15.90
2023-04-09T19:54:56.687Z,16.00
2023-04-09T19:57:26.628Z,19.30
2023-04-09T19:59:56.064Z,18.70
2023-04-09T20:02:25.797Z,19.30
2023-04-09T20:04:55.944Z,18.70
2023-04-09T20:07:25.348Z,17.30
2023-04-09T20:09:54.827Z,17.90
2023-04-09T20:12:28.407Z,18.70
2023-04-09T20:14:58.685Z,21.60
2023-04-09T20:17:28.140Z,21.60
2023-04-09T20:19:57.669Z,20.50
2023-04-09T20:22:27.285Z,21.30
2023-04-09T20:24:56.841Z,21.80
2023-04-09T20:27:27.181Z,19.10
2023-04-09T20:29:56.610Z,17.80
2023-04-09T20:32:27.261Z,14.10
2023-04-09T20:34:56.841Z,15.10
2023-04-09T20:37:26.322Z,16.10
2023-04-09T20:39:55.772Z,15.60
2023-04-09T20:42:25.069Z,14.10
2023-04-09T20:44:54.590Z,14.80
2023-04-09T20:47:24.110Z,15.30
2023-04-09T20:49:55.730Z,15.20
2023-04-09T20:52:28.178Z,16.60
2023-04-09T20:54:57.871Z,18.70
2023-04-09T20:57:27.404Z,20.50
2023-04-09T20:59:56.704Z,24.30
2023-04-09T21:02:26.288Z,24.00
2023-04-09T21:05:00.023Z,27.30
2023-04-09T21:07:32.971Z,22.90
2023-04-09T21:10:02.341Z,18.10
2023-04-09T21:12:33.759Z,14.80
2023-04-09T21:15:03.166Z,14.60
2023-04-09T21:17:33.243Z,14.30
2023-04-09T21:20:02.746Z,14.60
2023-04-09T21:22:32.156Z,15.20
2023-04-09T21:25:03.454Z,13.40
2023-04-09T21:27:32.938Z,14.20
2023-04-09T21:30:02.354Z,14.20
2023-04-09T21:32:31.674Z,14.10
2023-04-09T21:35:01.123Z,15.50
2023-04-09T21:37:32.180Z,13.40
2023-04-09T21:40:01.577Z,12.70
2023-04-09T21:42:33.562Z,13.80
2023-04-09T21:45:03.940Z,13.20
2023-04-09T21:47:33.388Z,12.90
2023-04-09T21:50:06.251Z,13.90
2023-04-09T21:52:35.729Z,12.80
2023-04-09T21:55:05.895Z,15.10
2023-04-09T21:57:35.154Z,15.50
2023-04-09T22:00:06.272Z,13.20
2023-04-09T22:02:39.555Z,12.20
2023-04-09T22:05:09.906Z,11.40
2023-04-09T22:07:40.715Z,10.70
2023-04-09T22:10:10.521Z,12.80
2023-04-09T22:12:39.930Z,16.00
2023-04-09T22:15:10.014Z,33.00
2023-04-09T22:17:39.483Z,36.40
2023-04-09T22:20:09.859Z,20.70
2023-04-09T22:22:39.852Z,13.80
2023-04-09T22:25:11.340Z,10.30
2023-04-09T22:27:40.683Z,11.50
2023-04-09T22:30:10.227Z,11.10
2023-04-09T22:32:39.676Z,11.20
2023-04-09T22:35:09.682Z,12.70
2023-04-09T22:37:39.039Z,11.40
2023-04-09T22:40:14.468Z,10.00
2023-04-09T22:42:46.974Z,10.20
2023-04-09T22:45:16.394Z,10.40
2023-04-09T22:47:46.048Z,9.90
2023-04-09T22:50:15.420Z,10.40
2023-04-09T22:52:44.847Z,9.90
2023-04-09T22:55:14.666Z,9.30
2023-04-09T22:57:44.539Z,9.70
2023-04-09T23:00:14.913Z,9.70
2023-04-09T23:02:44.366Z,9.50
2023-04-09T23:05:13.819Z,11.30
2023-04-09T23:07:45.205Z,12.60
2023-04-09T23:10:16.497Z,13.60
2023-04-09T23:12:45.884Z,13.70
2023-04-09T23:15:16.069Z,14.10
2023-04-09T23:17:45.444Z,13.20
2023-04-09T23:20:15.188Z,12.00
2023-04-09T23:22:47.927Z,11.70
2023-04-09T23:25:17.649Z,11.40
2023-04-09T23:28:05.686Z,10.80
2023-04-09T23:30:35.156Z,13.00
2023-04-09T23:33:04.526Z,12.70
2023-04-09T23:35:34.016Z,12.00
2023-04-09T23:38:03.302Z,11.00
2023-04-09T23:40:32.637Z,12.90
2023-04-09T23:43:02.921Z,13.30
2023-04-09T23:45:32.334Z,11.30
2023-04-09T23:48:03.344Z,11.70
2023-04-09T23:50:32.891Z,11.90
2023-04-09T23:53:03.944Z,12.60
2023-04-09T23:55:34.245Z,12.40
2023-04-09T23:58:05.213Z,12.10
